Time;durP1;ratioP1;P1;durP2;ratioP2;P2;SDS_P1;SDS_P2;PMS_P1;PMS_P2;Temp;Humidity;BMP_temperature;BMP_pressure;BME280_temperature;BME280_humidity;BME280_pressure;Samples;Min_cycle;Max_cycle;Signal;HPM_P1;HPM_P2
2022/12/04 00:01:48;;;;;;;4.60;3.22;;;22.20;45.10;;;20.53;51.51;95469.78;4962724;28;20168;-60
2022/12/04 00:04:14;;;;;;;4.53;3.20;;;22.10;45.00;;;20.52;51.63;95473.53;4965573;28;20053;-60
2022/12/04 00:06:40;;;;;;;4.60;3.33;;;22.20;45.10;;;20.52;51.33;95470.84;4963715;28;20455;-60
2022/12/04 00:09:07;;;;;;;4.28;3.05;;;22.10;45.00;;;20.50;51.06;95456.97;4962089;28;20038;-61
2022/12/04 00:11:33;;;;;;;5.53;3.45;;;22.20;45.00;;;20.51;52.03;95460.44;4961122;28;20060;-60
2022/12/04 00:13:59;;;;;;;5.43;3.13;;;22.20;45.00;;;20.50;51.34;95459.63;4962075;28;20362;-60
2022/12/04 00:16:28;;;;;;;4.47;3.45;;;22.20;45.10;;;20.49;51.87;95463.38;4947728;28;20037;-60
2022/12/04 00:18:54;;;;;;;5.32;3.35;;;22.10;45.00;;;20.48;51.91;95461.78;4964548;28;20030;-60
2022/12/04 00:21:21;;;;;;;4.53;3.55;;;22.20;45.00;;;20.48;50.85;95464.44;4948212;28;20068;-61
2022/12/04 00:23:47;;;;;;;4.05;3.05;;;22.20;44.90;;;20.48;51.77;95467.13;4948492;28;20037;-60
2022/12/04 00:26:19;;;;;;;3.55;3.00;;;22.10;45.00;;;20.47;51.26;95457.50;4960689;28;20572;-60
2022/12/04 00:28:45;;;;;;;5.13;3.00;;;22.20;45.00;;;20.46;51.21;95458.56;4952530;28;20056;-60
2022/12/04 00:31:14;;;;;;;4.65;3.35;;;22.10;44.90;;;20.44;50.96;95469.53;4971471;28;20029;-60
2022/12/04 00:33:40;;;;;;;4.10;3.20;;;22.20;44.90;;;20.46;51.53;95474.59;4954234;28;20034;-60
2022/12/04 00:36:09;;;;;;;4.90;3.58;;;22.10;44.90;;;20.46;51.75;95469.25;4935293;28;20036;-61
2022/12/04 00:38:35;;;;;;;3.80;3.00;;;22.10;45.00;;;20.44;51.38;95458.03;4949664;28;20126;-60
2022/12/04 00:41:01;;;;;;;4.63;3.42;;;22.10;44.90;;;20.43;51.91;95470.59;4983062;28;20037;-61
2022/12/04 00:43:27;;;;;;;5.03;3.40;;;22.10;45.00;;;20.43;51.11;95469.78;4967201;28;20040;-60
2022/12/04 00:45:53;;;;;;;4.13;2.88;;;22.10;45.00;;;20.43;51.86;95470.59;4986446;28;20021;-61
2022/12/04 00:48:19;;;;;;;4.57;3.33;;;22.20;45.00;;;20.42;50.54;95460.16;4999420;28;20105;-60
2022/12/04 00:50:45;;;;;;;4.47;3.15;;;22.10;45.10;;;20.42;51.66;95462.84;4952113;28;20401;-60
2022/12/04 00:53:11;;;;;;;5.05;3.10;;;22.10;45.10;;;20.42;51.61;95473.53;4951919;28;20467;-61
2022/12/04 00:55:41;;;;;;;3.90;3.33;;;22.10;45.00;;;20.42;50.86;95462.84;4967579;28;20028;-60
2022/12/04 00:58:07;;;;;;;3.60;2.72;;;22.10;44.90;;;20.38;52.24;95473.22;4966768;28;20644;-60
2022/12/04 01:00:37;;;;;;;4.68;3.30;;;22.10;44.90;;;20.40;51.21;95470.28;4982134;28;20033;-60
2022/12/04 01:03:04;;;;;;;;;;;22.10;45.00;;;20.38;51.69;95480.44;4934989;28;20713;-60
2022/12/04 01:05:30;;;;;;;5.05;3.40;;;22.10;44.90;;;20.36;51.30;95474.53;4984822;28;19913;-60
2022/12/04 01:07:56;;;;;;;4.95;3.10;;;22.10;44.90;;;20.36;51.21;95479.88;4982432;28;20033;-60
2022/12/04 01:10:22;;;;;;;4.40;3.40;;;22.10;44.80;;;20.36;51.32;95480.69;4949498;28;20122;-60
2022/12/04 01:12:52;;;;;;;4.40;3.30;;;22.10;44.90;;;20.37;51.01;95465.50;4984633;28;20438;-61
2022/12/04 01:15:18;;;;;;;3.78;3.00;;;22.10;44.90;;;20.37;51.88;95468.16;4967488;28;20029;-60
2022/12/04 01:17:47;;;;;;;4.45;3.40;;;22.10;44.90;;;20.36;51.20;95464.66;4982526;28;20342;-59
2022/12/04 01:20:13;;;;;;;3.83;2.95;;;22.10;44.90;;;20.36;51.93;95479.88;4983097;28;20064;-60
2022/12/04 01:22:39;;;;;;;4.85;2.90;;;22.10;44.90;;;20.35;51.13;95467.59;4984846;28;20373;-60
2022/12/04 01:25:05;;;;;;;4.53;3.30;;;22.10;45.00;;;20.35;51.14;95468.41;4965996;28;20328;-60
2022/12/04 01:27:32;;;;;;;4.13;3.30;;;22.10;45.00;;;20.35;51.34;95471.06;4982555;28;20037;-59
2022/12/04 01:29:58;;;;;;;3.47;3.00;;;22.10;45.00;;;20.36;50.83;95482.56;4965058;28;20040;-59
2022/12/04 01:32:24;;;;;;;3.78;3.00;;;22.10;45.00;;;20.35;50.78;95483.63;4983143;28;20110;-60
2022/12/04 01:34:49;;;;;;;4.15;3.05;;;22.10;45.00;;;20.34;51.06;95477.47;4967401;28;20455;-60
2022/12/04 01:37:15;;;;;;;3.75;3.33;;;22.10;45.00;;;20.33;51.82;95467.84;4965895;28;20051;-60
2022/12/04 01:39:41;;;;;;;3.78;3.25;;;22.10;44.90;;;20.33;51.98;95481.22;4965977;28;20215;-60
2022/12/04 01:42:14;;;;;;;4.88;3.15;;;22.10;44.90;;;20.33;51.20;95481.22;4934222;28;20105;-59
2022/12/04 01:45:22;;;;;;;3.88;3.00;;;22.10;45.10;;;20.35;51.61;95470.25;4946723;28;20087;-60
2022/12/04 01:47:48;;;;;;;4.47;3.53;;;22.10;45.00;;;20.32;51.47;95457.44;4964302;28;20632;-60
2022/12/04 01:50:14;;;;;;;3.72;3.05;;;22.10;45.00;;;20.32;51.64;95470.78;4948718;28;20033;-59
2022/12/04 01:52:40;;;;;;;5.72;3.47;;;22.10;45.00;;;20.31;51.02;95480.69;4966263;28;20037;-60
2022/12/04 01:55:06;;;;;;;3.40;2.97;;;22.10;45.00;;;20.31;51.43;95482.53;4983934;28;20472;-60
2022/12/04 01:57:32;;;;;;;4.05;3.20;;;22.10;45.00;;;20.31;51.32;95471.88;4965459;28;20752;-59
2022/12/04 02:00:03;;;;;;;4.68;3.38;;;22.10;45.00;;;20.31;51.62;95477.22;4949170;28;20037;-60
2022/12/04 02:02:34;;;;;;;3.70;2.88;;;22.10;45.00;;;20.31;51.05;95482.53;4966435;28;20033;-60
2022/12/04 02:05:01;;;;;;;4.05;2.97;;;22.10;45.00;;;20.29;51.47;95468.66;4950128;28;20029;-60
2022/12/04 02:07:27;;;;;;;4.20;3.28;;;22.10;45.00;;;20.30;51.70;95472.94;4951088;28;20028;-60
2022/12/04 02:09:54;;;;;;;3.80;2.90;;;22.10;45.00;;;20.29;51.06;95463.31;4948880;28;20029;-60
2022/12/04 02:12:50;;;;;;;3.60;2.67;;;22.10;45.00;;;20.32;51.16;95449.44;4981432;28;20044;-60
2022/12/04 02:15:20;;;;;;;5.60;3.05;;;22.00;45.10;;;20.27;51.59;95436.88;4966122;28;20703;-61
2022/12/04 02:18:12;;;;;;;4.05;3.08;;;22.10;45.10;;;20.29;51.70;95426.72;4981605;28;20610;-60
2022/12/04 02:20:58;;;;;;;3.22;2.67;;;22.10;45.00;;;20.28;50.90;95419.78;4945300;28;20033;-60
2022/12/04 02:24:07;;;;;;;4.53;3.20;;;22.10;45.10;;;20.28;51.59;95435.00;4952509;28;20064;-60
2022/12/04 02:27:06;;;;;;;3.72;2.70;;;22.00;45.00;;;20.27;52.43;95444.09;4947596;28;20552;-59
2022/12/04 02:29:58;;;;;;;4.43;3.28;;;22.00;45.10;;;20.28;51.87;95443.03;4953155;28;20649;-59
2022/12/04 02:32:34;;;;;;;5.13;3.00;;;22.00;45.00;;;20.25;51.21;95440.88;4944258;28;20643;-59
2022/12/04 02:35:21;;;;;;;4.55;2.95;;;22.00;45.10;;;20.27;51.98;95434.22;4978592;28;20148;-59
2022/12/04 02:37:51;;;;;;;4.18;2.92;;;22.10;45.10;;;20.25;51.32;95430.22;4959384;28;20646;-60
2022/12/04 02:40:21;;;;;;;4.40;3.17;;;22.00;45.10;;;20.25;51.33;95424.88;4961987;28;20103;-60
2022/12/04 02:43:02;;;;;;;3.70;2.92;;;22.00;45.10;;;20.24;51.56;95423.25;4963307;28;20127;-59
2022/12/04 02:45:37;;;;;;;4.05;2.75;;;22.00;45.00;;;20.25;51.36;95414.97;4960891;28;20636;-60
2022/12/04 02:48:03;;;;;;;5.00;3.20;;;22.00;45.10;;;20.25;52.17;95414.19;4977950;28;20049;-59
2022/12/04 02:50:29;;;;;;;3.95;3.00;;;22.00;45.10;;;20.24;51.61;95407.25;4960221;28;20056;-60
2022/12/04 02:53:04;;;;;;;3.85;2.90;;;22.00;45.20;;;20.25;51.69;95403.50;4945182;28;20045;-60
2022/12/04 02:55:54;;;;;;;3.60;2.92;;;22.00;45.10;;;20.26;51.18;95410.44;4941918;28;20070;-60
2022/12/04 02:58:26;;;;;;;3.97;3.08;;;22.00;45.10;;;20.23;51.52;95402.97;4928285;28;20099;-60
2022/12/04 03:00:52;;;;;;;3.22;2.70;;;22.00;45.20;;;20.22;51.35;95398.69;4927663;28;20544;-60
2022/12/04 03:03:22;;;;;;;4.00;2.90;;;22.00;45.10;;;20.22;51.77;95382.66;4925724;28;20057;-60
2022/12/04 03:06:23;;;;;;;3.42;2.97;;;22.00;45.20;;;20.23;52.33;95392.28;4925967;28;20038;-60
2022/12/04 03:09:20;;;;;;;3.97;2.28;;;22.00;45.20;;;20.21;52.05;95383.75;4915870;28;20052;-60
2022/12/04 03:11:53;;;;;;;3.00;2.60;;;21.90;45.20;;;20.20;52.12;95382.94;4933576;28;20042;-60
2022/12/04 03:14:32;;;;;;;3.35;2.72;;;22.00;45.20;;;20.21;52.34;95386.41;4941644;28;20064;-60
2022/12/04 03:17:04;;;;;;;3.30;2.67;;;21.90;45.30;;;20.23;51.69;95392.28;4926981;28;20111;-60
2022/12/04 03:19:38;;;;;;;3.72;3.05;;;21.90;45.20;;;20.22;51.98;95393.34;4909359;28;20034;-60
2022/12/04 03:22:09;;;;;;;3.03;2.40;;;21.90;45.30;;;20.21;51.95;95395.22;4924364;28;20152;-60
2022/12/04 03:25:05;;;;;;;3.15;2.85;;;21.90;45.10;;;20.25;51.60;95387.47;4893545;28;20062;-59
2022/12/04 03:28:09;;;;;;;3.92;3.13;;;21.90;45.10;;;20.23;51.74;95384.28;4914177;28;20064;-60
2022/12/04 03:30:49;;;;;;;4.00;2.70;;;21.90;45.10;;;20.22;51.79;95388.00;4923358;28;20034;-60
2022/12/04 03:33:18;;;;;;;3.20;2.55;;;22.00;45.00;;;20.22;52.40;95398.69;4925549;28;20034;-60
2022/12/04 03:36:06;;;;;;;4.10;2.78;;;21.90;45.00;;;20.24;51.04;95399.22;4940853;28;20114;-60
2022/12/04 03:38:36;;;;;;;3.28;2.72;;;22.00;45.00;;;20.23;50.86;95400.28;4941809;28;20046;-60
2022/12/04 03:41:30;;;;;;;3.38;2.60;;;21.90;44.90;;;20.25;51.86;95392.81;4943092;28;20188;-59
2022/12/04 03:44:21;;;;;;;3.35;2.80;;;22.00;44.90;;;20.24;51.06;95401.91;4928677;28;20045;-59
2022/12/04 03:47:05;;;;;;;3.47;2.78;;;21.90;45.00;;;20.23;51.07;95402.97;4909008;28;20141;-59
2022/12/04 03:49:58;;;;;;;3.47;2.53;;;22.00;45.10;;;20.25;50.82;95417.66;4941288;28;20097;-61
2022/12/04 03:52:28;;;;;;;2.80;2.30;;;22.00;45.00;;;20.25;51.70;95417.66;4941656;28;20034;-60
2022/12/04 03:55:09;;;;;;;3.20;2.45;;;21.90;45.00;;;20.25;51.07;95406.97;4942481;28;20034;-60
2022/12/04 03:57:38;;;;;;;3.10;2.53;;;21.90;45.00;;;20.25;51.81;95408.84;4942511;28;20037;-60
2022/12/04 04:00:15;;;;;;;3.22;2.60;;;21.90;45.00;;;20.26;51.39;95405.09;4925472;28;20053;-60
2022/12/04 04:03:16;;;;;;;3.08;2.60;;;21.90;45.00;;;20.26;50.84;95395.22;4941510;28;20030;-60
2022/12/04 04:05:45;;;;;;;3.38;2.35;;;22.00;45.10;;;20.25;51.19;95393.63;4934687;28;20034;-60
2022/12/04 04:08:26;;;;;;;3.13;2.60;;;22.00;45.10;;;20.26;51.61;95394.41;4924521;28;20263;-60
2022/12/04 04:11:05;;;;;;;;;;;22.00;45.20;;;20.23;51.69;95384.28;4926404;28;20555;-60
2022/12/04 04:24:58;;;;;;;3.33;2.20;;;22.10;45.40;;;20.37;52.18;95369.31;4940105;28;20149;-60
2022/12/04 04:27:24;;;;;;;4.63;2.42;;;22.10;45.40;;;20.40;51.55;95371.47;4942325;28;20040;-60
2022/12/04 04:29:50;;;;;;;2.63;2.15;;;22.10;45.50;;;20.43;52.21;95374.41;4959323;28;20390;-60
2022/12/04 04:32:33;;;;;;;3.08;2.60;;;22.10;45.50;;;20.48;52.04;95371.75;4959073;28;20347;-60
2022/12/04 04:35:21;;;;;;;3.25;2.45;;;22.10;45.50;;;20.51;52.54;95364.25;4959890;28;20041;-60
2022/12/04 04:37:59;;;;;;;3.00;2.10;;;22.10;45.50;;;20.51;51.61;95357.03;4962635;28;20033;-60
2022/12/04 04:40:58;;;;;;;3.45;2.80;;;22.10;45.50;;;20.53;51.90;95362.09;4961689;28;20048;-60
2022/12/04 04:43:36;;;;;;;3.03;2.35;;;22.10;45.50;;;20.53;51.88;95370.13;4958239;28;20359;-60
2022/12/04 04:46:17;;;;;;;3.28;2.40;;;22.10;45.50;;;20.55;52.44;95381.34;4928356;28;20152;-60
2022/12/04 04:48:47;;;;;;;2.63;2.25;;;22.10;45.60;;;20.54;52.46;95372.53;4945350;28;20048;-60
2022/12/04 04:51:13;;;;;;;3.25;2.50;;;22.10;45.60;;;20.57;51.90;95371.97;4960429;28;20034;-60
2022/12/04 04:53:50;;;;;;;3.30;2.50;;;22.10;45.60;;;20.57;51.75;95369.31;4961324;28;20355;-59
2022/12/04 04:56:16;;;;;;;3.28;2.50;;;22.10;45.70;;;20.58;52.26;95364.78;4974141;28;20152;-59
2022/12/04 04:58:42;;;;;;;3.42;2.30;;;22.10;45.60;;;20.58;52.50;95370.91;4959742;28;20298;-59
2022/12/04 05:01:11;;;;;;;3.00;2.40;;;22.20;45.60;;;20.58;52.16;95370.91;4965517;28;20099;-60
2022/12/04 05:03:37;;;;;;;3.20;2.42;;;22.10;45.60;;;20.57;52.47;95369.31;4948071;28;20114;-60
2022/12/04 05:06:03;;;;;;;3.63;2.40;;;22.20;45.70;;;20.58;51.87;95370.09;4963625;28;20433;-60
2022/12/04 05:08:28;;;;;;;3.10;2.40;;;22.10;45.60;;;20.58;52.19;95360.22;4964758;28;20029;-59
2022/12/04 05:10:54;;;;;;;3.47;2.60;;;22.20;45.60;;;20.56;52.22;95359.69;4965484;28;20315;-60
2022/12/04 05:13:20;;;;;;;3.63;2.70;;;22.10;45.60;;;20.58;52.53;95370.91;4980291;28;20339;-60
2022/12/04 05:16:01;;;;;;;3.20;2.40;;;22.20;45.60;;;20.57;52.24;95376.53;4962542;28;20114;-59
2022/12/04 05:18:27;;;;;;;2.83;2.17;;;22.20;45.60;;;20.55;51.29;95371.44;4963171;28;20039;-60
2022/12/04 05:20:53;;;;;;;3.42;2.47;;;22.20;45.60;;;20.55;51.96;95382.13;4966206;28;20107;-60
2022/12/04 05:23:19;;;;;;;2.97;2.30;;;22.20;45.50;;;20.57;52.24;95379.19;4947076;28;20135;-60
2022/12/04 05:25:45;;;;;;;3.50;2.65;;;22.10;45.50;;;20.55;52.13;95382.13;4946763;28;20026;-59
2022/12/04 05:28:11;;;;;;;2.95;2.40;;;22.10;45.70;;;20.56;51.87;95385.63;4961153;28;20064;-59
2022/12/04 05:30:37;;;;;;;5.82;2.28;;;22.20;45.70;;;20.56;53.12;95375.72;4947672;28;20292;-61
2022/12/04 05:33:03;;;;;;;4.03;2.47;;;22.20;46.10;;;20.59;53.17;95385.88;4904907;28;20192;-60
2022/12/04 05:35:29;;;;;;;3.90;2.42;;;22.20;47.00;;;20.61;54.07;95378.41;4945311;28;20467;-58
2022/12/04 05:37:54;;;;;;;4.63;2.03;;;22.20;48.00;;;20.62;54.25;95373.88;4964096;28;20042;-59
2022/12/04 05:40:20;;;;;;;3.38;2.35;;;22.30;48.40;;;20.63;54.45;95373.59;4931389;28;20287;-60
2022/12/04 05:42:46;;;;;;;3.25;2.17;;;22.30;47.80;;;20.65;55.10;95373.31;4888668;28;20287;-59
2022/12/04 05:45:12;;;;;;;2.95;2.40;;;22.30;47.90;;;20.66;54.91;95378.41;4904915;28;20603;-60
2022/12/04 05:47:40;;;;;;;3.15;2.20;;;22.30;47.70;;;20.66;54.61;95375.72;4889717;28;20369;-61
2022/12/04 05:50:07;;;;;;;2.72;2.15;;;22.30;47.40;;;20.67;54.21;95373.84;4891660;28;20448;-60
2022/12/04 05:52:33;;;;;;;4.07;3.00;;;22.30;47.40;;;20.68;54.08;95386.16;4885146;28;20458;-61
2022/12/04 05:54:59;;;;;;;3.58;2.63;;;22.30;47.40;;;20.67;54.20;95385.34;4862214;28;20310;-61
2022/12/04 05:57:25;;;;;;;3.05;2.30;;;22.30;47.20;;;20.67;54.07;95374.66;4869607;28;20340;-60
2022/12/04 05:59:51;;;;;;;3.78;2.13;;;22.30;47.50;;;20.68;54.51;95372.78;4853876;28;20317;-59
2022/12/04 06:02:17;;;;;;;3.13;2.22;;;22.30;47.60;;;20.68;54.29;95389.63;4884335;28;20320;-59
2022/12/04 06:04:43;;;;;;;3.10;2.10;;;22.30;47.40;;;20.69;54.77;95383.19;4870006;28;20672;-60
2022/12/04 06:07:10;;;;;;;7.65;2.58;;;22.30;47.30;;;20.69;54.17;95363.69;4869149;28;20498;-60
2022/12/04 06:09:36;;;;;;;2.58;2.13;;;22.40;47.20;;;20.68;53.85;95360.22;4897938;28;20375;-60
2022/12/04 06:12:02;;;;;;;8.57;2.65;;;22.30;46.70;;;20.68;53.99;95370.91;4894323;28;20073;-59
2022/12/04 06:14:28;;;;;;;3.47;2.50;;;22.30;46.60;;;20.67;53.60;95369.31;4892846;28;20038;-59
2022/12/04 06:16:54;;;;;;;2.60;2.20;;;22.30;46.40;;;20.67;53.69;95368.50;4911215;28;20026;-59
2022/12/04 06:19:21;;;;;;;4.95;2.35;;;22.30;46.60;;;20.68;53.88;95373.59;4879743;28;20395;-60
2022/12/04 06:21:50;;;;;;;3.22;2.45;;;22.30;46.70;;;20.68;54.52;95370.91;4875484;28;20322;-60
2022/12/04 06:24:19;;;;;;;9.57;2.75;;;22.30;47.20;;;20.69;54.47;95372.50;4871494;28;20469;-60
2022/12/04 06:26:45;;;;;;;7.65;3.10;;;22.40;47.70;;;20.71;55.43;95381.06;4872807;28;20502;-60
2022/12/04 06:29:11;;;;;;;18.95;4.78;;;22.40;49.50;;;20.73;59.25;95378.13;4872849;28;20355;-60
2022/12/04 06:31:37;;;;;;;17.98;4.53;;;22.40;51.60;;;20.75;60.71;95371.44;4872114;28;20294;-60
2022/12/04 06:34:04;;;;;;;12.55;3.58;;;22.50;53.60;;;20.79;62.31;95371.69;4868745;28;20703;-60
2022/12/04 06:36:30;;;;;;;10.88;3.88;;;22.50;53.30;;;20.83;63.89;95363.94;4864286;28;20362;-61
2022/12/04 06:38:56;;;;;;;38.17;7.90;;;22.60;56.40;;;20.89;71.95;95357.50;4877255;28;20316;-61
2022/12/04 06:41:23;;;;;;;24.48;5.72;;;22.60;69.20;;;20.99;79.01;95371.63;4862735;28;20485;-60
2022/12/04 06:43:50;;;;;;;28.90;5.50;;;22.70;70.00;;;21.06;77.91;95376.72;4869403;28;20204;-60
2022/12/04 06:46:19;;;;;;;17.77;4.28;;;22.70;64.50;;;21.08;73.69;95369.22;4870178;28;20486;-58
2022/12/04 06:48:45;;;;;;;24.95;4.60;;;22.70;59.50;;;21.09;71.99;95373.50;4872556;28;20371;-60
2022/12/04 06:51:16;;;;;;;18.35;4.28;;;22.70;57.90;;;21.09;71.30;95376.16;4868413;28;20355;-60
2022/12/04 06:53:42;;;;;;;16.05;4.22;;;22.70;57.70;;;21.09;69.60;95376.97;4890266;28;20501;-60
2022/12/04 06:56:11;;;;;;;15.40;4.35;;;22.70;56.40;;;21.09;69.33;95368.16;4883611;28;20211;-60
2022/12/04 06:58:37;;;;;;;17.15;4.63;;;22.70;56.10;;;21.08;68.71;95369.22;4888042;28;20364;-61
2022/12/04 07:01:08;;;;;;;12.13;3.47;;;22.70;56.40;;;21.07;69.67;95375.63;4903166;28;20513;-61
2022/12/04 07:03:35;;;;;;;9.60;3.47;;;22.80;55.20;;;21.07;67.87;95378.31;4887737;28;20421;-60
2022/12/04 07:06:18;;;;;;;9.10;3.65;;;22.70;55.30;;;21.07;68.21;95378.31;4904734;28;20561;-60
2022/12/04 07:08:46;;;;;;;10.90;3.78;;;22.70;56.00;;;21.04;66.79;95357.44;4867845;28;20443;-61
2022/12/04 07:11:12;;;;;;;11.55;3.47;;;22.70;54.20;;;21.03;66.42;95361.19;4885671;28;20568;-61
2022/12/04 07:13:38;;;;;;;15.02;3.90;;;22.60;54.60;;;21.01;66.28;95350.75;4868391;28;20324;-61
2022/12/04 07:16:06;;;;;;;9.23;3.50;;;22.60;54.70;;;20.99;65.49;95360.13;4882727;28;20318;-60
2022/12/04 07:18:32;;;;;;;15.43;3.75;;;22.60;53.80;;;20.98;65.63;95375.38;4887040;28;20413;-61
2022/12/04 07:20:58;;;;;;;10.52;3.53;;;22.60;54.30;;;20.97;65.57;95383.66;4890831;28;20215;-60
2022/12/04 07:23:24;;;;;;;6.55;3.20;;;22.60;53.80;;;20.97;64.71;95376.44;4891769;28;20879;-61
2022/12/04 07:25:50;;;;;;;12.15;3.90;;;22.60;53.70;;;20.97;65.49;95386.34;4925967;28;20412;-61
2022/12/04 07:28:16;;;;;;;7.88;3.75;;;22.60;54.20;;;20.96;65.47;95387.41;4874158;28;20707;-61
2022/12/04 07:30:43;;;;;;;9.85;3.70;;;22.60;53.50;;;20.97;65.01;95394.38;4869956;28;20351;-61
2022/12/04 07:33:09;;;;;;;25.52;4.05;;;22.60;53.60;;;20.96;64.89;95414.16;4878768;28;20502;-61
2022/12/04 07:35:35;;;;;;;16.63;3.80;;;22.60;53.70;;;20.96;65.06;95403.47;4899287;28;20323;-60
2022/12/04 07:38:01;;;;;;;15.90;4.32;;;22.60;53.40;;;20.96;64.35;95376.72;4980045;28;20025;-60
2022/12/04 07:40:26;;;;;;;15.95;3.75;;;22.60;53.50;;;20.96;64.23;95376.72;5024315;28;20050;-60
2022/12/04 07:42:52;;;;;;;10.88;3.88;;;22.60;52.90;;;20.93;63.54;95371.94;5006731;28;20103;-60
2022/12/04 07:45:19;;;;;;;10.68;3.83;;;22.60;52.30;;;20.91;63.98;95347.34;4979732;28;20053;-60
2022/12/04 07:47:45;;;;;;;9.90;3.60;;;22.60;52.60;;;20.89;62.88;95354.84;5013851;28;20387;-61
2022/12/04 07:50:11;;;;;;;10.07;3.33;;;22.60;52.10;;;20.88;62.44;95347.88;5030135;28;20039;-61
2022/12/04 07:52:37;;;;;;;10.18;3.22;;;22.50;52.10;;;20.86;62.45;95350.84;5046534;28;20507;-61
2022/12/04 07:55:05;;;;;;;10.80;3.38;;;22.60;51.60;;;20.85;62.43;95369.81;5030261;28;20039;-61
2022/12/04 07:57:31;;;;;;;6.68;3.47;;;22.60;52.30;;;20.85;62.20;95388.53;5046206;28;20032;-60
2022/12/04 07:59:56;;;;;;;8.25;3.97;;;22.50;51.50;;;20.83;61.37;95382.66;4993846;28;20144;-61
2022/12/04 08:02:22;;;;;;;7.60;3.95;;;22.50;51.30;;;20.80;61.53;95381.28;5009739;28;20450;-61
2022/12/04 08:04:48;;;;;;;6.90;3.42;;;22.50;51.20;;;20.78;60.85;95381.56;5010490;28;20045;-60
2022/12/04 08:07:14;;;;;;;8.82;3.85;;;22.50;50.90;;;20.77;61.78;95374.63;4993983;28;20403;-61
2022/12/04 08:09:39;;;;;;;9.63;4.07;;;22.50;51.40;;;20.76;60.85;95373.03;4993277;28;20076;-60
2022/12/04 08:12:05;;;;;;;8.88;3.33;;;22.50;51.30;;;20.76;60.70;95386.38;5010218;28;20052;-60
2022/12/04 08:14:31;;;;;;;8.93;3.63;;;22.50;51.60;;;20.75;61.47;95387.47;5025997;28;20036;-61
2022/12/04 08:16:57;;;;;;;7.10;3.20;;;22.50;51.10;;;20.74;60.92;95380.50;5026604;28;20115;-61
2022/12/04 08:19:23;;;;;;;6.63;3.72;;;22.50;51.10;;;20.74;61.09;95379.72;4992982;28;20093;-61
2022/12/04 08:21:48;;;;;;;16.70;3.70;;;22.50;50.70;;;20.72;60.31;95388.00;5022920;28;20036;-61
2022/12/04 08:24:14;;;;;;;6.35;3.17;;;22.50;50.70;;;20.72;60.85;95388.00;4980013;28;20492;-61
2022/12/04 08:26:40;;;;;;;5.75;3.00;;;22.40;50.90;;;20.71;60.15;95383.72;5023047;28;20024;-62
2022/12/04 08:29:06;;;;;;;6.80;3.35;;;22.40;50.80;;;20.71;60.20;95380.25;4977552;28;20549;-61
2022/12/04 08:31:34;;;;;;;9.00;3.17;;;22.40;50.60;;;20.70;60.49;95374.13;5009949;28;20432;-61
2022/12/04 08:34:01;;;;;;;6.07;3.05;;;22.40;50.80;;;20.70;59.73;95373.31;5013201;28;20745;-61
2022/12/04 08:36:27;;;;;;;5.47;2.83;;;22.50;50.40;;;20.70;60.01;95373.31;5048573;28;20143;-60
2022/12/04 08:38:53;;;;;;;6.13;3.10;;;22.50;50.40;;;20.69;59.63;95375.19;5033001;28;20025;-61
2022/12/04 08:41:20;;;;;;;6.63;3.05;;;22.40;50.20;;;20.67;59.15;95358.63;5033446;28;20445;-60
2022/12/04 08:43:46;;;;;;;6.05;3.38;;;22.40;50.40;;;20.67;59.54;95374.66;5033528;28;20115;-61
2022/12/04 08:46:14;;;;;;;5.57;3.13;;;22.40;49.90;;;20.67;59.03;95379.19;5017413;28;20033;-60
2022/12/04 08:48:40;;;;;;;5.43;3.15;;;22.40;49.90;;;20.66;59.15;95381.06;5049283;28;20464;-61
2022/12/04 08:51:07;;;;;;;5.60;3.15;;;22.40;49.70;;;20.65;58.76;95387.50;5033380;28;20135;-60
2022/12/04 08:53:33;;;;;;;6.38;3.20;;;22.40;49.90;;;20.63;58.70;95384.28;5017164;28;20076;-60
2022/12/04 08:56:03;;;;;;;6.10;3.30;;;22.40;49.30;;;20.64;58.41;95371.72;5001017;28;20104;-61
2022/12/04 08:58:29;;;;;;;6.22;2.65;;;22.40;49.30;;;20.63;58.71;95383.50;5048469;28;20039;-62
2022/12/04 09:00:54;;;;;;;8.18;3.45;;;22.40;49.20;;;20.62;59.00;95392.56;5016432;28;20127;-61
2022/12/04 09:03:20;;;;;;;7.03;2.88;;;22.30;49.60;;;20.61;58.74;95401.66;5029729;28;20438;-60
2022/12/04 09:05:46;;;;;;;6.63;2.90;;;22.30;49.10;;;20.60;58.13;95400.88;5013424;28;20037;-60
2022/12/04 09:08:13;;;;;;;4.53;2.90;;;22.30;49.40;;;20.61;58.71;95401.66;5028824;28;20071;-61
2022/12/04 09:10:39;;;;;;;5.90;3.03;;;22.30;49.10;;;20.62;58.08;95409.41;5012371;28;20061;-60
2022/12/04 09:13:05;;;;;;;4.35;2.97;;;22.30;49.30;;;20.63;57.86;95405.66;5016509;28;20052;-62
2022/12/04 09:15:31;;;;;;;4.40;3.05;;;22.20;49.10;;;20.63;58.30;95405.66;5029415;28;20040;-60
2022/12/04 09:17:57;;;;;;;4.90;2.90;;;22.20;49.20;;;20.64;57.47;95388.56;5028652;28;20029;-60
2022/12/04 09:20:22;;;;;;;5.15;2.95;;;22.20;49.00;;;20.64;57.72;95363.72;5039720;28;20516;-61
2022/12/04 09:22:48;;;;;;;4.93;3.00;;;22.30;49.00;;;20.64;57.28;95359.16;5025838;28;20236;-61
2022/12/04 09:25:14;;;;;;;4.55;2.70;;;22.30;49.00;;;20.62;57.65;95345.28;5009456;28;20400;-60
2022/12/04 09:27:43;;;;;;;4.45;3.20;;;22.20;49.00;;;20.62;57.17;95350.63;5025645;28;20038;-61
2022/12/04 09:30:10;;;;;;;6.85;3.25;;;22.30;48.90;;;20.62;57.74;95371.19;5013096;28;20063;-61
2022/12/04 09:32:36;;;;;;;4.38;2.83;;;22.20;48.50;;;20.60;57.74;95384.81;5012301;28;20186;-61
2022/12/04 09:35:03;;;;;;;5.72;3.05;;;22.20;48.70;;;20.60;57.72;95400.88;5029117;28;20029;-61
2022/12/04 09:37:29;;;;;;;4.53;3.10;;;22.20;48.90;;;20.60;57.59;95384.81;5012592;28;20033;-62
2022/12/04 09:39:55;;;;;;;5.20;3.00;;;22.20;48.60;;;20.60;57.63;95379.50;5012230;28;20099;-60
2022/12/04 09:42:42;;;;;;;6.38;3.30;;;22.20;48.60;;;20.61;56.94;95365.06;5028606;28;20033;-61
2022/12/04 09:45:14;;;;;;;3.97;2.95;;;22.30;48.60;;;20.59;57.14;95361.81;5028715;28;20683;-61
2022/12/04 09:47:46;;;;;;;4.72;3.25;;;22.20;48.60;;;20.59;57.06;95351.13;5012465;28;20044;-62
2022/12/04 09:50:21;;;;;;;6.40;3.40;;;22.20;48.60;;;20.59;57.16;95340.44;4996468;28;20047;-61
2022/12/04 09:53:09;;;;;;;4.43;3.00;;;22.20;48.80;;;20.59;56.95;95345.78;4996869;28;20025;-59
2022/12/04 09:56:12;;;;;;;4.75;3.25;;;22.20;48.60;;;20.58;57.42;95349.53;5031084;28;20126;-61
2022/12/04 09:58:58;;;;;;;6.32;3.35;;;22.20;48.80;;;20.58;57.08;95332.69;5030335;28;20500;-61
2022/12/04 10:01:35;;;;;;;4.78;3.30;;;22.30;48.50;;;20.57;56.44;95323.09;5012697;28;20124;-62
2022/12/04 10:04:01;;;;;;;4.97;3.60;;;22.30;48.50;;;20.56;57.23;95324.16;5013031;28;20029;-61
2022/12/04 10:06:33;;;;;;;5.05;4.05;;;22.20;48.60;;;20.57;56.64;95331.09;5028391;28;20128;-61
2022/12/04 10:09:41;;;;;;;5.10;3.15;;;22.20;48.50;;;20.57;56.25;95337.25;4995481;28;20056;-61
2022/12/04 10:12:24;;;;;;;3.72;3.20;;;22.20;48.40;;;20.55;56.69;95339.41;5016278;28;20033;-60
2022/12/04 10:15:28;;;;;;;4.80;3.35;;;22.20;48.40;;;20.55;56.57;95350.09;5028253;28;20413;-62
2022/12/04 10:18:14;;;;;;;3.83;2.90;;;22.20;48.30;;;20.54;56.22;95348.47;5028809;28;20108;-61
2022/12/04 10:20:50;;;;;;;5.32;3.30;;;22.20;48.40;;;20.54;56.79;95337.78;5008936;28;20627;-61
2022/12/04 10:23:43;;;;;;;4.88;3.35;;;22.20;48.30;;;20.54;56.51;95334.31;5024964;28;20481;-62
2022/12/04 10:26:16;;;;;;;4.55;3.30;;;22.20;48.30;;;20.51;56.91;95322.31;5024955;28;20022;-61
2022/12/04 10:28:54;;;;;;;3.80;3.00;;;22.20;48.30;;;20.51;56.38;95310.81;4971777;28;20030;-61
2022/12/04 10:31:19;;;;;;;4.35;3.20;;;22.20;48.10;;;20.51;56.74;95321.50;4996862;28;20040;-61
2022/12/04 10:33:55;;;;;;;4.13;3.30;;;22.20;48.10;;;20.52;55.42;95302.53;4980181;28;20409;-61
2022/12/04 10:36:24;;;;;;;5.93;4.10;;;22.20;48.00;;;20.51;56.00;95292.91;5001832;28;20080;-61
2022/12/04 10:39:12;;;;;;;4.35;2.90;;;22.20;47.90;;;20.54;56.06;95294.25;5024103;28;20572;-61
2022/12/04 10:41:51;;;;;;;4.53;2.97;;;22.20;48.00;;;20.52;55.99;95294.50;5042114;28;20496;-62
2022/12/04 10:44:18;;;;;;;4.72;3.40;;;22.20;47.90;;;20.52;55.93;95294.50;5008239;28;20033;-62
2022/12/04 10:46:44;;;;;;;5.50;3.50;;;22.10;47.90;;;20.53;55.74;95298.00;5042250;28;20087;-61